createdAt,value
2022-12-08T00:02:25.006Z,3.32
2022-12-08T00:07:26.632Z,3.33
2022-12-08T00:12:28.207Z,3.31
2022-12-08T00:17:29.694Z,3.32
2022-12-08T00:22:31.210Z,3.27
2022-12-08T00:27:32.689Z,3.31
2022-12-08T00:32:34.207Z,3.30
2022-12-08T00:37:35.657Z,3.32
2022-12-08T00:42:37.407Z,3.33
2022-12-08T00:47:38.946Z,3.33
2022-12-08T00:52:40.504Z,3.35
2022-12-08T00:57:41.962Z,3.33
2022-12-08T01:02:43.466Z,3.25
2022-12-08T01:07:44.918Z,3.25
2022-12-08T01:12:46.400Z,3.30
2022-12-08T01:17:47.869Z,3.44
2022-12-08T01:22:49.309Z,3.40
2022-12-08T01:27:52.366Z,3.36
2022-12-08T01:32:53.944Z,3.37
2022-12-08T01:37:55.488Z,3.37
2022-12-08T01:42:57.005Z,3.35
2022-12-08T01:48:02.533Z,3.36
2022-12-08T01:53:13.629Z,3.41
2022-12-08T01:58:29.931Z,3.47
2022-12-08T02:03:41.927Z,3.48
2022-12-08T02:08:43.851Z,3.42
2022-12-08T02:13:47.756Z,3.44
2022-12-08T02:24:55.543Z,3.37
2022-12-08T02:30:12.335Z,3.40
2022-12-08T02:35:44.853Z,3.34
2022-12-08T02:40:56.290Z,3.40
2022-12-08T02:46:11.350Z,3.45
2022-12-08T02:51:12.863Z,3.41
2022-12-08T02:56:43.465Z,3.30
2022-12-08T03:02:17.545Z,3.27
2022-12-08T03:07:32.020Z,3.23
2022-12-08T03:12:53.220Z,3.22
2022-12-08T03:17:59.070Z,3.22
2022-12-08T03:23:05.887Z,3.22
2022-12-08T03:28:07.643Z,3.22
2022-12-08T03:33:17.498Z,3.27
2022-12-08T03:38:18.988Z,3.29
2022-12-08T03:43:20.508Z,3.25
2022-12-08T03:48:21.964Z,3.21
2022-12-08T03:53:23.430Z,3.31
2022-12-08T03:58:24.953Z,3.40
2022-12-08T04:03:26.512Z,3.49
2022-12-08T04:08:28.193Z,3.46
2022-12-08T04:13:29.745Z,3.41
2022-12-08T04:18:32.445Z,3.34
2022-12-08T04:23:33.888Z,3.32
2022-12-08T04:28:35.740Z,3.31
2022-12-08T04:33:37.570Z,3.32
2022-12-08T04:38:39.076Z,3.34
2022-12-08T04:43:40.585Z,3.41
2022-12-08T04:48:42.112Z,3.38
2022-12-08T04:53:46.662Z,3.43
2022-12-08T04:58:48.470Z,3.42
2022-12-08T05:03:49.909Z,3.33
2022-12-08T05:08:51.432Z,3.26
2022-12-08T05:13:53.000Z,3.22
2022-12-08T05:18:54.516Z,3.27
2022-12-08T05:23:55.984Z,3.35
2022-12-08T05:28:57.682Z,3.32
2022-12-08T05:34:02.935Z,3.30
2022-12-08T05:39:05.019Z,3.26
2022-12-08T05:44:06.849Z,3.22
2022-12-08T05:49:08.519Z,3.28
2022-12-08T05:54:10.699Z,3.30
2022-12-08T05:59:12.192Z,3.28
2022-12-08T06:04:13.649Z,3.29
2022-12-08T06:09:15.088Z,3.30
2022-12-08T06:14:16.571Z,3.28
2022-12-08T06:19:18.073Z,3.26
2022-12-08T06:24:19.583Z,3.26
2022-12-08T06:29:21.057Z,3.23
2022-12-08T06:34:22.492Z,2.95
2022-12-08T06:39:23.904Z,2.86
2022-12-08T06:44:25.538Z,2.82
2022-12-08T06:49:26.980Z,2.80
2022-12-08T06:54:28.573Z,2.69
2022-12-08T06:59:30.169Z,2.63
2022-12-08T07:04:31.658Z,2.63
2022-12-08T07:09:33.149Z,2.60
2022-12-08T07:14:34.655Z,2.75
2022-12-08T07:19:36.077Z,2.77
2022-12-08T07:24:37.496Z,2.79
2022-12-08T07:29:38.983Z,2.75
2022-12-08T07:34:40.487Z,2.76
2022-12-08T07:39:42.019Z,2.75
2022-12-08T07:44:43.539Z,2.81
2022-12-08T07:49:45.007Z,2.83
2022-12-08T07:54:47.299Z,2.81
2022-12-08T07:59:48.724Z,2.83
2022-12-08T08:04:50.823Z,2.86
2022-12-08T08:09:52.348Z,2.94
2022-12-08T08:14:53.752Z,3.06
2022-12-08T08:19:55.249Z,3.12
2022-12-08T08:24:56.740Z,3.27
2022-12-08T08:29:58.243Z,3.40
2022-12-08T08:34:59.950Z,3.54
2022-12-08T08:40:02.013Z,3.56
2022-12-08T08:45:04.242Z,3.47
2022-12-08T08:50:06.773Z,3.59
2022-12-08T08:55:08.888Z,3.60
2022-12-08T09:00:11.316Z,3.59
2022-12-08T09:05:12.817Z,3.69
2022-12-08T09:10:14.582Z,3.70
2022-12-08T09:15:16.147Z,3.63
2022-12-08T09:20:17.784Z,3.57
2022-12-08T09:25:19.219Z,3.77
2022-12-08T09:30:20.637Z,3.77
2022-12-08T09:35:22.068Z,3.58
2022-12-08T09:40:25.842Z,3.96
2022-12-08T09:45:33.138Z,4.10
2022-12-08T09:50:56.712Z,4.17
2022-12-08T09:56:21.688Z,4.32
2022-12-08T10:01:28.688Z,4.42
2022-12-08T10:06:39.390Z,4.50
2022-12-08T10:11:51.285Z,4.55
2022-12-08T10:16:58.308Z,4.60
2022-12-08T10:22:00.162Z,4.58
2022-12-08T10:27:02.328Z,4.63
2022-12-08T10:32:33.387Z,4.78
2022-12-08T10:37:35.552Z,4.82
2022-12-08T10:42:42.633Z,4.87
2022-12-08T10:48:09.003Z,4.94
2022-12-08T10:53:13.205Z,5.11
2022-12-08T10:58:41.031Z,5.19
2022-12-08T11:03:51.299Z,5.41
2022-12-08T11:08:58.230Z,5.41
2022-12-08T11:14:07.033Z,6.47
2022-12-08T11:19:26.760Z,7.47
2022-12-08T11:24:31.219Z,7.45
2022-12-08T11:29:35.664Z,7.16
2022-12-08T11:34:44.388Z,7.15
2022-12-08T11:39:50.317Z,7.55
2022-12-08T11:44:58.778Z,7.61
2022-12-08T11:50:21.838Z,7.70
2022-12-08T11:55:36.935Z,7.67
2022-12-08T12:00:40.439Z,7.48
2022-12-08T12:06:30.858Z,7.54
2022-12-08T12:11:53.192Z,7.65
2022-12-08T12:17:07.300Z,7.35
2022-12-08T12:22:16.044Z,7.38
2022-12-08T12:27:28.055Z,7.50
2022-12-08T12:32:45.481Z,7.83
2022-12-08T12:37:48.834Z,7.91
2022-12-08T12:42:56.427Z,7.74
2022-12-08T12:47:57.850Z,7.54
2022-12-08T12:53:17.322Z,7.61
2022-12-08T12:58:29.258Z,7.49
2022-12-08T13:03:30.832Z,7.17
2022-12-08T13:08:33.009Z,6.82
2022-12-08T13:13:35.106Z,6.60
2022-12-08T13:18:41.943Z,6.36
2022-12-08T13:24:04.865Z,6.21
2022-12-08T13:29:16.455Z,6.08
2022-12-08T13:34:32.891Z,5.96
2022-12-08T13:39:40.506Z,5.79
2022-12-08T13:45:19.814Z,5.66
2022-12-08T13:51:23.590Z,5.62
2022-12-08T14:01:18.830Z,5.41
2022-12-08T14:06:49.740Z,5.34
2022-12-08T14:11:56.517Z,5.29
2022-12-08T14:17:04.606Z,5.22
2022-12-08T14:22:11.463Z,5.23
2022-12-08T14:27:19.081Z,5.18
2022-12-08T14:32:30.292Z,5.23
2022-12-08T14:37:43.823Z,5.18
2022-12-08T14:43:04.870Z,5.15
2022-12-08T14:48:21.518Z,4.95
2022-12-08T14:53:23.727Z,4.82
2022-12-08T14:58:30.131Z,4.63
2022-12-08T15:03:32.516Z,4.48
2022-12-08T15:08:50.487Z,4.26
2022-12-08T15:13:53.375Z,4.10
2022-12-08T15:19:22.669Z,3.93
2022-12-08T15:24:27.300Z,3.87
2022-12-08T15:29:30.053Z,3.76
2022-12-08T15:34:31.573Z,3.81
2022-12-08T15:39:35.736Z,3.93
2022-12-08T15:44:37.208Z,4.02
2022-12-08T15:49:38.708Z,4.03
2022-12-08T15:54:40.200Z,4.04
2022-12-08T15:59:41.653Z,4.03
2022-12-08T16:10:07.833Z,3.97
2022-12-08T16:20:58.874Z,3.80
2022-12-08T16:26:20.462Z,3.75
2022-12-08T16:31:21.452Z,3.78
2022-12-08T16:36:24.429Z,3.77
2022-12-08T16:41:25.968Z,3.80
2022-12-08T16:46:27.423Z,3.83
2022-12-08T16:51:28.956Z,3.90
2022-12-08T16:56:33.177Z,3.93
2022-12-08T17:01:36.248Z,3.86
2022-12-08T17:06:37.886Z,3.78
2022-12-08T17:11:43.305Z,3.87
2022-12-08T17:16:45.818Z,3.87
2022-12-08T17:21:47.353Z,3.86
2022-12-08T17:26:49.113Z,3.83
2022-12-08T17:31:51.069Z,3.86
2022-12-08T17:36:52.667Z,3.77
2022-12-08T17:41:54.192Z,3.66
2022-12-08T17:46:55.641Z,3.57
2022-12-08T17:52:02.099Z,3.54
2022-12-08T17:57:03.901Z,3.41
2022-12-08T18:02:05.404Z,3.29
2022-12-08T18:07:06.939Z,3.14
2022-12-08T18:12:08.476Z,3.10
2022-12-08T18:17:09.985Z,3.01
2022-12-08T18:22:11.502Z,2.98
2022-12-08T18:27:13.368Z,2.98
2022-12-08T18:32:14.797Z,2.88
2022-12-08T18:37:16.521Z,2.80
2022-12-08T18:42:18.159Z,2.74
2022-12-08T18:47:19.562Z,2.66
2022-12-08T18:52:28.243Z,2.49
2022-12-08T18:57:33.180Z,2.46
2022-12-08T19:02:34.683Z,2.51
2022-12-08T19:07:36.711Z,2.57
2022-12-08T19:12:38.185Z,2.50
2022-12-08T19:17:39.785Z,2.35
2022-12-08T19:22:41.226Z,2.28
2022-12-08T19:27:42.653Z,2.22
2022-12-08T19:32:44.155Z,2.20
2022-12-08T19:37:46.619Z,2.23
2022-12-08T19:42:48.140Z,2.28
2022-12-08T19:47:49.667Z,2.23
2022-12-08T19:52:51.145Z,2.22
2022-12-08T19:57:53.566Z,2.21
2022-12-08T20:02:55.200Z,2.22
2022-12-08T20:07:56.956Z,2.16
2022-12-08T20:12:58.463Z,2.23
2022-12-08T20:17:59.901Z,2.35
2022-12-08T20:23:01.472Z,2.42
2022-12-08T20:28:03.063Z,2.33
2022-12-08T20:33:04.568Z,2.38
2022-12-08T20:38:06.073Z,2.42
2022-12-08T20:43:07.494Z,2.38
2022-12-08T20:48:09.048Z,2.39
2022-12-08T20:53:10.775Z,2.39
2022-12-08T20:58:12.564Z,2.45
2022-12-08T21:03:14.849Z,2.54
2022-12-08T21:08:17.320Z,2.51
2022-12-08T21:13:18.867Z,2.45
2022-12-08T21:18:21.151Z,2.47
2022-12-08T21:23:22.684Z,2.45
2022-12-08T21:28:24.142Z,2.53
2022-12-08T21:33:25.841Z,2.57
2022-12-08T21:38:27.407Z,2.51
2022-12-08T21:43:29.778Z,2.57
2022-12-08T21:48:31.456Z,2.57
2022-12-08T21:53:33.301Z,2.56
2022-12-08T21:58:35.035Z,2.45
2022-12-08T22:03:38.730Z,2.49
2022-12-08T22:08:45.291Z,2.56
2022-12-08T22:13:47.004Z,2.49
2022-12-08T22:18:48.472Z,2.49
2022-12-08T22:23:50.145Z,2.47
2022-12-08T22:28:51.660Z,2.49
2022-12-08T22:33:53.447Z,2.57
2022-12-08T22:38:55.283Z,2.66
2022-12-08T22:43:56.950Z,2.65
2022-12-08T22:48:58.715Z,2.58
2022-12-08T22:54:00.280Z,2.52
2022-12-08T22:59:01.939Z,2.57
2022-12-08T23:04:03.917Z,2.59
2022-12-08T23:09:06.318Z,2.56
2022-12-08T23:14:07.902Z,2.63
2022-12-08T23:19:09.876Z,2.59
2022-12-08T23:24:11.332Z,2.61
2022-12-08T23:29:12.872Z,2.66
2022-12-08T23:34:14.338Z,2.71
2022-12-08T23:39:16.796Z,2.63
2022-12-08T23:44:18.232Z,2.61
2022-12-08T23:49:19.853Z,2.54
2022-12-08T23:54:21.456Z,2.56
2022-12-08T23:59:23.051Z,2.60
